createdAt,value
2022-10-30T00:01:00.738Z,12.48
2022-10-30T00:02:32.815Z,12.43
2022-10-30T00:04:04.867Z,12.40
2022-10-30T00:05:36.366Z,12.37
2022-10-30T00:07:08.091Z,12.32
2022-10-30T00:08:39.861Z,12.29
2022-10-30T00:10:11.516Z,12.28
2022-10-30T00:11:43.072Z,12.25
2022-10-30T00:13:15.105Z,12.19
2022-10-30T00:14:46.856Z,12.12
2022-10-30T00:16:18.670Z,12.11
2022-10-30T00:17:50.323Z,12.05
2022-10-30T00:19:22.140Z,11.99
2022-10-30T00:20:53.766Z,11.97
2022-10-30T00:22:25.395Z,11.96
2022-10-30T00:23:57.027Z,11.93
2022-10-30T00:25:28.662Z,11.94
2022-10-30T00:27:00.196Z,11.99
2022-10-30T00:28:31.778Z,12.01
2022-10-30T00:30:03.472Z,11.99
2022-10-30T00:31:35.593Z,12.00
2022-10-30T00:33:07.210Z,11.99
2022-10-30T00:34:38.714Z,11.98
2022-10-30T00:36:10.693Z,11.98
2022-10-30T00:37:42.227Z,11.99
2022-10-30T00:39:13.744Z,12.00
2022-10-30T00:40:45.303Z,12.02
2022-10-30T00:42:16.927Z,12.00
2022-10-30T00:43:48.869Z,12.01
2022-10-30T00:45:20.898Z,11.95
2022-10-30T00:46:52.609Z,11.89
2022-10-30T00:48:24.494Z,11.83
2022-10-30T00:49:56.112Z,11.75
2022-10-30T00:51:28.040Z,11.66
2022-10-30T00:53:04.077Z,11.58
2022-10-30T00:54:35.872Z,11.51
2022-10-30T00:56:07.572Z,11.47
2022-10-30T00:57:39.173Z,11.43
2022-10-30T00:59:14.248Z,11.41
2022-10-30T01:00:46.895Z,11.35
2022-10-30T01:02:18.974Z,11.31
2022-10-30T01:03:50.921Z,11.24
2022-10-30T01:05:22.879Z,11.20
2022-10-30T01:06:54.396Z,11.17
2022-10-30T01:08:25.973Z,11.13
2022-10-30T01:09:57.551Z,11.10
2022-10-30T01:11:29.406Z,11.07
2022-10-30T01:13:00.963Z,11.06
2022-10-30T01:14:32.668Z,11.06
2022-10-30T01:16:27.199Z,11.05
2022-10-30T01:18:01.666Z,11.01
2022-10-30T01:19:33.697Z,11.00
2022-10-30T01:21:17.176Z,11.03
2022-10-30T01:22:48.678Z,11.05
2022-10-30T01:24:29.373Z,11.09
2022-10-30T01:26:13.702Z,11.14
2022-10-30T01:27:50.040Z,11.16
2022-10-30T01:29:24.131Z,11.13
2022-10-30T01:31:11.036Z,11.14
2022-10-30T01:32:45.832Z,11.08
2022-10-30T01:34:36.483Z,11.06
2022-10-30T01:36:08.326Z,11.05
2022-10-30T01:37:42.991Z,11.05
2022-10-30T01:39:15.974Z,11.08
2022-10-30T01:40:47.766Z,11.06
2022-10-30T01:42:38.010Z,11.00
2022-10-30T01:44:11.193Z,10.96
2022-10-30T01:46:01.782Z,11.01
2022-10-30T01:47:42.312Z,11.02
2022-10-30T01:49:16.760Z,11.05
2022-10-30T01:50:48.328Z,11.10
2022-10-30T01:52:25.757Z,11.11
2022-10-30T01:53:57.392Z,11.12
2022-10-30T01:55:31.398Z,11.13
2022-10-30T01:57:05.623Z,11.13
2022-10-30T01:58:39.766Z,11.13
2022-10-30T02:00:12.125Z,11.13
2022-10-30T02:01:44.079Z,11.16
2022-10-30T02:03:15.730Z,11.23
2022-10-30T02:04:47.389Z,11.28
2022-10-30T02:06:19.013Z,11.26
2022-10-30T02:07:50.515Z,11.26
2022-10-30T02:09:22.108Z,11.26
2022-10-30T02:10:53.767Z,11.24
2022-10-30T02:12:26.689Z,11.21
2022-10-30T02:13:58.282Z,11.16
2022-10-30T02:15:30.566Z,11.13
2022-10-30T02:17:03.027Z,11.14
2022-10-30T02:18:34.664Z,11.13
2022-10-30T02:20:07.124Z,11.15
2022-10-30T02:21:39.263Z,11.17
2022-10-30T02:23:17.131Z,11.18
2022-10-30T02:24:48.964Z,11.17
2022-10-30T02:26:20.483Z,11.13
2022-10-30T02:27:52.039Z,11.16
2022-10-30T02:29:23.701Z,11.16
2022-10-30T02:30:55.196Z,11.12
2022-10-30T02:32:26.923Z,11.06
2022-10-30T02:33:58.596Z,11.02
2022-10-30T02:35:30.434Z,10.95
2022-10-30T02:37:02.035Z,10.85
2022-10-30T02:38:33.690Z,10.78
2022-10-30T02:40:05.568Z,10.77
2022-10-30T02:41:37.429Z,10.71
2022-10-30T02:43:08.919Z,10.65
2022-10-30T02:44:40.437Z,10.63
2022-10-30T02:46:12.390Z,10.65
2022-10-30T02:47:43.964Z,10.64
2022-10-30T02:49:15.591Z,10.61
2022-10-30T02:50:47.504Z,10.56
2022-10-30T02:52:19.347Z,10.56
2022-10-30T02:53:50.957Z,10.54
2022-10-30T02:55:22.802Z,10.52
2022-10-30T02:56:54.428Z,10.52
2022-10-30T02:58:25.989Z,10.51
2022-10-30T02:59:57.641Z,10.44
2022-10-30T03:01:29.348Z,10.39
2022-10-30T03:03:00.972Z,10.40
2022-10-30T03:04:32.600Z,10.39
2022-10-30T03:06:04.680Z,10.36
2022-10-30T03:07:36.749Z,10.30
2022-10-30T03:09:08.440Z,10.26
2022-10-30T03:10:40.220Z,10.27
2022-10-30T03:12:11.872Z,10.25
2022-10-30T03:13:43.746Z,10.20
2022-10-30T03:15:15.544Z,10.15
2022-10-30T03:16:47.161Z,10.09
2022-10-30T03:18:18.858Z,10.05
2022-10-30T03:19:51.795Z,10.00
2022-10-30T03:21:23.922Z,9.98
2022-10-30T03:22:56.017Z,9.99
2022-10-30T03:24:27.629Z,10.00
2022-10-30T03:25:59.279Z,9.98
2022-10-30T03:27:31.047Z,10.01
2022-10-30T03:29:02.700Z,10.01
2022-10-30T03:30:34.395Z,9.99
2022-10-30T03:32:09.063Z,9.98
2022-10-30T03:33:41.074Z,9.96
2022-10-30T03:35:12.599Z,9.98
2022-10-30T03:36:44.190Z,10.01
2022-10-30T03:38:15.931Z,10.03
2022-10-30T03:39:47.527Z,10.01
2022-10-30T03:41:19.166Z,9.94
2022-10-30T03:42:51.517Z,9.93
2022-10-30T03:44:23.073Z,9.93
2022-10-30T03:45:55.351Z,9.93
2022-10-30T03:47:26.946Z,9.90
2022-10-30T03:48:59.562Z,9.87
2022-10-30T03:50:31.251Z,9.84
2022-10-30T03:52:03.185Z,9.82
2022-10-30T03:53:34.775Z,9.80
2022-10-30T03:55:06.633Z,9.84
2022-10-30T03:56:38.175Z,9.83
2022-10-30T03:58:09.829Z,9.83
2022-10-30T03:59:41.416Z,9.79
2022-10-30T04:01:13.103Z,9.77
2022-10-30T04:02:48.361Z,9.74
2022-10-30T04:04:19.982Z,9.76
2022-10-30T04:05:53.124Z,9.73
2022-10-30T04:07:25.263Z,9.75
2022-10-30T04:08:56.888Z,9.72
2022-10-30T04:10:28.447Z,9.66
2022-10-30T04:12:00.075Z,9.57
2022-10-30T04:13:32.036Z,9.52
2022-10-30T04:15:03.878Z,9.44
2022-10-30T04:16:35.630Z,9.41
2022-10-30T04:18:07.258Z,9.43
2022-10-30T04:19:38.928Z,9.44
2022-10-30T04:21:10.768Z,9.40
2022-10-30T04:22:42.264Z,9.40
2022-10-30T04:24:16.369Z,9.41
2022-10-30T04:25:48.195Z,9.39
2022-10-30T04:27:20.529Z,9.37
2022-10-30T04:28:52.638Z,9.38
2022-10-30T04:30:25.303Z,9.36
2022-10-30T04:31:56.907Z,9.38
2022-10-30T04:33:29.117Z,9.40
2022-10-30T04:35:00.869Z,9.42
2022-10-30T04:36:34.270Z,9.42
2022-10-30T04:38:10.615Z,9.43
2022-10-30T04:39:46.371Z,9.41
2022-10-30T04:41:18.183Z,9.36
2022-10-30T04:42:49.706Z,9.29
2022-10-30T04:44:21.555Z,9.26
2022-10-30T04:45:53.254Z,9.26
2022-10-30T04:47:24.878Z,9.27
2022-10-30T04:48:57.503Z,9.30
2022-10-30T04:50:29.195Z,9.27
2022-10-30T04:52:00.661Z,9.28
2022-10-30T04:53:32.301Z,9.26
2022-10-30T04:55:04.139Z,9.24
2022-10-30T04:56:35.705Z,9.22
2022-10-30T04:58:08.568Z,9.26
2022-10-30T04:59:40.155Z,9.25
2022-10-30T05:01:12.044Z,9.21
2022-10-30T05:04:20.161Z,9.11
2022-10-30T05:06:04.885Z,9.08
2022-10-30T05:07:36.688Z,9.06
2022-10-30T05:09:08.597Z,9.06
2022-10-30T05:10:40.783Z,9.07
2022-10-30T05:12:12.287Z,9.06
2022-10-30T05:13:43.840Z,9.09
2022-10-30T05:15:15.599Z,9.07
2022-10-30T05:16:47.391Z,9.05
2022-10-30T05:18:19.656Z,9.07
2022-10-30T05:19:51.242Z,9.06
2022-10-30T05:21:23.163Z,9.02
2022-10-30T05:22:58.783Z,8.99
2022-10-30T05:24:31.065Z,8.95
2022-10-30T05:26:02.959Z,8.94
2022-10-30T05:27:34.508Z,8.96
2022-10-30T05:29:06.068Z,9.02
2022-10-30T05:30:37.728Z,9.10
2022-10-30T05:32:09.343Z,9.24
2022-10-30T05:33:41.074Z,9.40
2022-10-30T05:35:12.901Z,9.57
2022-10-30T05:36:44.654Z,9.73
2022-10-30T05:38:16.315Z,9.90
2022-10-30T05:39:48.158Z,10.05
2022-10-30T05:41:19.863Z,10.16
2022-10-30T05:42:52.041Z,10.24
2022-10-30T05:44:34.614Z,10.32
2022-10-30T05:46:12.502Z,10.39
2022-10-30T05:47:44.348Z,10.44
2022-10-30T05:49:16.172Z,10.53
2022-10-30T05:50:48.111Z,10.63
2022-10-30T05:52:20.216Z,10.77
2022-10-30T05:53:52.232Z,10.90
2022-10-30T05:55:24.278Z,11.03
2022-10-30T05:56:57.495Z,11.13
2022-10-30T05:58:29.205Z,11.26
2022-10-30T06:00:01.308Z,11.43
2022-10-30T06:01:33.479Z,11.59
2022-10-30T06:03:06.128Z,11.67
2022-10-30T06:04:37.855Z,11.78
2022-10-30T06:06:09.614Z,11.93
2022-10-30T06:07:41.577Z,12.08
2022-10-30T06:09:13.955Z,12.23
2022-10-30T06:10:45.867Z,12.35
2022-10-30T06:12:17.706Z,12.46
2022-10-30T06:13:49.759Z,12.45
2022-10-30T06:15:21.700Z,12.43
2022-10-30T06:16:53.453Z,12.50
2022-10-30T06:18:25.620Z,12.58
2022-10-30T06:19:57.163Z,12.65
2022-10-30T06:21:31.428Z,12.74
2022-10-30T06:23:07.352Z,12.84
2022-10-30T06:24:39.144Z,12.94
2022-10-30T06:26:11.633Z,12.95
2022-10-30T06:27:43.912Z,12.99
2022-10-30T06:29:15.808Z,13.08
2022-10-30T06:30:48.109Z,13.16
2022-10-30T06:32:19.893Z,13.23
2022-10-30T06:33:51.465Z,13.28
2022-10-30T06:35:23.219Z,13.33
2022-10-30T06:36:55.082Z,13.43
2022-10-30T06:38:26.892Z,13.50
2022-10-30T06:39:58.673Z,13.57
2022-10-30T06:41:30.776Z,13.68
2022-10-30T06:43:02.785Z,13.75
2022-10-30T06:44:34.869Z,13.83
2022-10-30T06:47:39.516Z,13.84
2022-10-30T06:49:11.684Z,13.79
2022-10-30T06:50:43.348Z,13.82
2022-10-30T06:52:15.192Z,13.87
2022-10-30T06:53:46.910Z,14.01
2022-10-30T06:55:18.574Z,14.12
2022-10-30T06:56:50.889Z,14.28
2022-10-30T06:58:23.105Z,14.39
2022-10-30T06:59:54.777Z,14.37
2022-10-30T07:01:26.436Z,14.21
2022-10-30T07:02:59.303Z,14.29
2022-10-30T07:04:31.300Z,14.47
2022-10-30T07:06:03.904Z,14.68
2022-10-30T07:07:36.335Z,14.89
2022-10-30T07:09:07.968Z,15.12
2022-10-30T07:10:40.233Z,15.35
2022-10-30T07:12:12.001Z,15.52
2022-10-30T07:13:43.711Z,15.48
2022-10-30T07:15:15.827Z,15.56
2022-10-30T07:16:48.109Z,15.60
2022-10-30T07:18:20.179Z,15.67
2022-10-30T07:19:52.326Z,15.79
2022-10-30T07:21:24.227Z,15.93
2022-10-30T07:22:56.052Z,16.03
2022-10-30T07:24:27.694Z,16.16
2022-10-30T07:26:03.837Z,16.13
2022-10-30T07:27:42.085Z,15.96
2022-10-30T07:29:13.859Z,15.87
2022-10-30T07:30:45.444Z,15.88
2022-10-30T07:32:17.122Z,15.75
2022-10-30T07:33:48.769Z,15.66
2022-10-30T07:35:20.572Z,15.68
2022-10-30T07:36:52.351Z,15.77
2022-10-30T07:38:24.262Z,15.85
2022-10-30T07:39:56.071Z,15.88
2022-10-30T07:41:28.724Z,16.01
2022-10-30T07:43:01.123Z,16.03
2022-10-30T07:44:33.091Z,16.20
2022-10-30T07:46:04.889Z,16.32
2022-10-30T07:47:42.861Z,16.50
2022-10-30T07:49:14.770Z,16.70
2022-10-30T07:50:46.463Z,16.91
2022-10-30T07:52:18.421Z,17.19
2022-10-30T07:53:50.491Z,17.48
2022-10-30T07:55:22.248Z,17.69
2022-10-30T07:56:54.053Z,17.88
2022-10-30T07:58:25.823Z,17.89
2022-10-30T08:00:00.956Z,17.97
2022-10-30T08:01:35.775Z,18.11
2022-10-30T08:03:07.518Z,18.17
2022-10-30T08:04:39.278Z,18.17
2022-10-30T08:06:11.109Z,18.13
2022-10-30T08:07:42.872Z,18.05
2022-10-30T08:09:14.487Z,17.98
2022-10-30T08:10:46.617Z,17.98
2022-10-30T08:12:18.321Z,18.07
2022-10-30T08:13:50.376Z,18.13
2022-10-30T08:15:22.556Z,18.16
2022-10-30T08:16:54.473Z,18.28
2022-10-30T08:18:26.970Z,18.37
2022-10-30T08:19:58.665Z,18.44
2022-10-30T08:21:30.381Z,18.48
2022-10-30T08:23:02.905Z,18.57
2022-10-30T08:24:35.344Z,18.59
2022-10-30T08:26:07.298Z,18.63
2022-10-30T08:27:39.299Z,18.70
2022-10-30T08:29:11.053Z,18.76
2022-10-30T08:30:43.156Z,18.78
2022-10-30T08:32:14.971Z,18.85
2022-10-30T08:33:46.777Z,18.84
2022-10-30T08:35:19.973Z,18.96
2022-10-30T08:36:52.100Z,19.06
2022-10-30T08:38:23.867Z,19.09
2022-10-30T08:39:55.570Z,19.20
2022-10-30T08:41:27.256Z,19.26
2022-10-30T08:42:58.899Z,19.29
2022-10-30T08:44:30.708Z,19.37
2022-10-30T08:46:02.662Z,19.42
2022-10-30T08:47:34.768Z,19.55
2022-10-30T08:49:06.850Z,19.68
2022-10-30T08:50:39.799Z,19.80
2022-10-30T08:52:11.550Z,19.96
2022-10-30T08:53:43.132Z,20.04
2022-10-30T08:55:14.766Z,20.07
2022-10-30T08:56:46.451Z,20.13
2022-10-30T08:58:18.295Z,20.26
2022-10-30T08:59:50.132Z,20.42
2022-10-30T09:01:22.091Z,20.61
2022-10-30T09:02:54.030Z,20.76
2022-10-30T09:04:26.192Z,20.86
2022-10-30T09:06:01.353Z,21.00
2022-10-30T09:07:33.863Z,21.11
2022-10-30T09:09:05.514Z,21.12
2022-10-30T09:10:37.223Z,21.23
2022-10-30T09:12:09.371Z,21.34
2022-10-30T09:13:41.260Z,21.36
2022-10-30T09:15:13.107Z,21.44
2022-10-30T09:16:45.179Z,21.41
2022-10-30T09:18:17.357Z,21.48
2022-10-30T09:19:49.512Z,21.50
2022-10-30T09:21:21.309Z,21.55
2022-10-30T09:22:53.138Z,21.63
2022-10-30T09:24:24.855Z,21.74
2022-10-30T09:25:59.592Z,21.86
2022-10-30T09:27:31.841Z,21.96
2022-10-30T09:29:05.294Z,22.04
2022-10-30T09:30:37.072Z,22.19
2022-10-30T09:32:10.301Z,22.30
2022-10-30T09:33:42.046Z,22.37
2022-10-30T09:35:13.807Z,22.44
2022-10-30T09:36:47.837Z,22.52
2022-10-30T09:38:19.579Z,22.63
2022-10-30T09:39:51.789Z,22.68
2022-10-30T09:41:23.432Z,22.75
2022-10-30T09:42:55.160Z,22.86
2022-10-30T09:44:27.102Z,22.94
2022-10-30T09:46:07.847Z,23.05
2022-10-30T09:47:39.538Z,23.14
2022-10-30T09:49:11.094Z,23.28
2022-10-30T09:50:56.091Z,23.38
2022-10-30T09:52:34.152Z,23.52
2022-10-30T09:54:12.443Z,23.60
2022-10-30T09:55:47.774Z,23.69
2022-10-30T09:57:30.314Z,23.83
2022-10-30T09:59:11.312Z,23.98
2022-10-30T10:00:49.575Z,24.09
2022-10-30T10:02:34.973Z,24.20
2022-10-30T10:04:15.813Z,24.39
2022-10-30T10:06:12.187Z,24.55
2022-10-30T10:07:48.336Z,24.69
2022-10-30T10:09:23.467Z,24.72
2022-10-30T10:11:14.474Z,24.75
2022-10-30T10:12:50.059Z,24.80
2022-10-30T10:14:21.623Z,24.92
2022-10-30T10:15:54.936Z,25.08
2022-10-30T10:17:31.975Z,25.19
2022-10-30T10:19:06.768Z,25.18
2022-10-30T10:20:41.702Z,25.24
2022-10-30T10:22:23.497Z,25.35
2022-10-30T10:23:56.061Z,25.46
2022-10-30T10:25:27.583Z,25.51
2022-10-30T10:26:59.270Z,25.63
2022-10-30T10:28:44.955Z,25.74
2022-10-30T10:30:21.075Z,25.84
2022-10-30T10:32:29.117Z,25.93
2022-10-30T10:34:18.677Z,25.98
2022-10-30T10:36:10.274Z,26.12
2022-10-30T10:37:48.349Z,26.30
2022-10-30T10:39:19.912Z,26.41
2022-10-30T10:41:04.043Z,26.56
2022-10-30T10:42:56.116Z,26.75
2022-10-30T10:44:33.790Z,26.94
2022-10-30T10:46:08.517Z,27.05
2022-10-30T10:47:45.853Z,27.08
2022-10-30T10:49:26.821Z,27.13
2022-10-30T10:51:03.055Z,27.24
2022-10-30T10:52:41.084Z,27.39
2022-10-30T10:54:14.821Z,27.37
2022-10-30T10:55:48.960Z,27.36
2022-10-30T10:57:28.039Z,27.43
2022-10-30T10:59:09.025Z,27.53
2022-10-30T11:00:40.810Z,27.62
2022-10-30T11:02:22.132Z,27.72
2022-10-30T11:04:09.779Z,27.85
2022-10-30T11:05:47.125Z,28.03
2022-10-30T11:07:26.083Z,28.20
2022-10-30T11:09:13.122Z,28.43
2022-10-30T11:10:46.033Z,28.66
2022-10-30T11:12:18.438Z,28.80
2022-10-30T11:13:50.132Z,28.95
2022-10-30T11:15:23.910Z,29.05
2022-10-30T11:17:24.753Z,29.19
2022-10-30T11:18:58.884Z,29.34
2022-10-30T11:20:50.829Z,29.43
2022-10-30T11:22:24.402Z,29.63
2022-10-30T11:23:56.061Z,29.73
2022-10-30T11:25:33.467Z,29.85
2022-10-30T11:27:23.591Z,29.93
2022-10-30T11:29:00.308Z,29.94
2022-10-30T11:30:31.958Z,30.00
2022-10-30T11:32:04.885Z,30.03
2022-10-30T11:33:36.574Z,30.12
2022-10-30T11:35:08.408Z,30.20
2022-10-30T11:36:40.251Z,30.18
2022-10-30T11:38:13.438Z,30.26
2022-10-30T11:39:45.468Z,30.24
2022-10-30T11:41:17.188Z,30.29
2022-10-30T11:42:54.847Z,30.27
2022-10-30T11:44:31.086Z,30.35
2022-10-30T11:46:02.818Z,30.46
2022-10-30T11:49:30.983Z,30.56
2022-10-30T11:51:03.114Z,30.57
2022-10-30T11:52:38.920Z,30.60
2022-10-30T11:54:15.652Z,30.67
2022-10-30T11:55:47.744Z,30.72
2022-10-30T11:57:23.805Z,30.68
2022-10-30T11:58:56.148Z,30.69
2022-10-30T12:00:31.512Z,30.67
2022-10-30T12:02:04.010Z,30.68
2022-10-30T12:03:39.579Z,30.67
2022-10-30T12:05:26.051Z,30.72
2022-10-30T12:07:07.401Z,30.77
2022-10-30T12:08:39.038Z,30.88
2022-10-30T12:10:31.032Z,30.97
2022-10-30T12:12:06.665Z,30.98
2022-10-30T12:13:39.625Z,30.93
2022-10-30T12:15:14.590Z,30.91
2022-10-30T12:16:50.594Z,30.99
2022-10-30T12:18:26.301Z,30.99
2022-10-30T12:20:05.162Z,30.93
2022-10-30T12:21:39.205Z,30.93
2022-10-30T12:23:11.045Z,30.94
2022-10-30T12:24:42.900Z,30.92
2022-10-30T12:26:15.521Z,30.93
2022-10-30T12:27:51.178Z,31.00
2022-10-30T12:29:32.476Z,31.03
2022-10-30T12:31:20.903Z,31.09
2022-10-30T12:33:04.632Z,31.09
2022-10-30T12:34:39.276Z,31.03
2022-10-30T12:36:12.473Z,31.04
2022-10-30T12:37:44.706Z,31.10
2022-10-30T12:39:26.798Z,31.12
2022-10-30T12:41:16.899Z,31.09
2022-10-30T12:43:08.771Z,31.16
2022-10-30T12:44:41.545Z,31.16
2022-10-30T12:46:27.166Z,31.13
2022-10-30T12:47:59.571Z,31.17
2022-10-30T12:49:41.991Z,31.15
2022-10-30T12:51:25.603Z,31.18
2022-10-30T12:53:07.888Z,31.19
2022-10-30T12:54:39.915Z,31.25
2022-10-30T12:56:16.841Z,31.28
2022-10-30T12:57:50.409Z,31.18
2022-10-30T12:59:22.353Z,31.18
2022-10-30T13:01:15.546Z,31.16
2022-10-30T13:02:55.777Z,31.10
2022-10-30T13:04:36.388Z,31.09
2022-10-30T13:06:15.961Z,30.98
2022-10-30T13:07:48.117Z,30.94
2022-10-30T13:09:19.902Z,30.89
2022-10-30T13:10:51.601Z,30.84
2022-10-30T13:12:24.010Z,30.77
2022-10-30T13:13:55.703Z,30.75
2022-10-30T13:15:31.063Z,30.73
2022-10-30T13:17:03.154Z,30.70
2022-10-30T13:18:35.118Z,30.72
2022-10-30T13:20:13.032Z,30.66
2022-10-30T13:22:06.194Z,30.62
2022-10-30T13:23:40.983Z,30.57
2022-10-30T13:25:15.650Z,30.61
2022-10-30T13:26:50.795Z,30.67
2022-10-30T13:28:29.932Z,30.71
2022-10-30T13:30:06.067Z,30.65
2022-10-30T13:32:00.104Z,30.60
2022-10-30T13:33:35.956Z,30.54
2022-10-30T13:35:24.214Z,30.46
2022-10-30T13:36:55.951Z,30.41
2022-10-30T13:38:33.469Z,30.33
2022-10-30T13:40:24.193Z,30.29
2022-10-30T13:42:12.897Z,30.27
2022-10-30T13:43:51.258Z,30.19
2022-10-30T13:45:24.311Z,30.23
2022-10-30T13:47:05.617Z,30.18
2022-10-30T13:48:37.252Z,30.21
2022-10-30T13:50:12.295Z,30.21
2022-10-30T13:51:43.936Z,30.22
2022-10-30T13:53:16.710Z,30.18
2022-10-30T13:55:00.125Z,30.16
2022-10-30T13:56:31.683Z,30.11
2022-10-30T13:58:09.463Z,30.05
2022-10-30T13:59:41.022Z,29.95
2022-10-30T14:01:12.788Z,29.91
2022-10-30T14:03:01.630Z,29.86
2022-10-30T14:04:38.718Z,29.78
2022-10-30T14:06:23.844Z,29.73
2022-10-30T14:08:03.278Z,29.70
2022-10-30T14:09:39.794Z,29.69
2022-10-30T14:11:12.594Z,29.62
2022-10-30T14:12:44.323Z,29.55
2022-10-30T14:14:31.702Z,29.45
2022-10-30T14:16:06.327Z,29.32
2022-10-30T14:17:37.949Z,29.20
2022-10-30T14:19:13.930Z,29.08
2022-10-30T14:20:55.878Z,28.92
2022-10-30T14:22:28.087Z,28.74
2022-10-30T14:24:03.742Z,28.61
2022-10-30T14:25:35.352Z,28.51
2022-10-30T14:27:07.623Z,28.40
2022-10-30T14:28:48.606Z,28.26
2022-10-30T14:30:21.576Z,28.19
2022-10-30T14:31:53.216Z,28.15
2022-10-30T14:33:35.335Z,28.17
2022-10-30T14:35:25.296Z,28.08
2022-10-30T14:36:56.900Z,27.97
2022-10-30T14:38:29.038Z,27.88
2022-10-30T14:40:00.683Z,27.74
2022-10-30T14:41:47.958Z,27.68
2022-10-30T14:43:36.156Z,27.60
2022-10-30T14:45:26.474Z,27.51
2022-10-30T14:47:07.212Z,27.37
2022-10-30T14:48:59.583Z,27.26
2022-10-30T14:50:31.232Z,27.23
2022-10-30T14:52:14.748Z,27.18
2022-10-30T14:53:52.542Z,27.07
2022-10-30T14:55:36.140Z,27.02
2022-10-30T14:57:20.630Z,26.94
2022-10-30T14:59:10.084Z,26.85
2022-10-30T15:00:42.912Z,26.77
2022-10-30T15:02:14.732Z,26.70
2022-10-30T15:04:06.838Z,26.61
2022-10-30T15:05:51.481Z,26.54
2022-10-30T15:07:29.625Z,26.44
2022-10-30T15:09:04.251Z,26.31
2022-10-30T15:10:36.595Z,26.22
2022-10-30T15:12:10.770Z,26.12
2022-10-30T15:13:49.302Z,26.03
2022-10-30T15:15:20.894Z,25.96
2022-10-30T15:16:52.581Z,25.84
2022-10-30T15:18:26.831Z,25.73
2022-10-30T15:20:02.969Z,25.58
2022-10-30T15:21:38.698Z,25.45
2022-10-30T15:23:12.239Z,25.32
2022-10-30T15:24:43.805Z,25.18
2022-10-30T15:26:19.275Z,25.07
2022-10-30T15:27:51.935Z,24.98
2022-10-30T15:29:29.151Z,24.88
2022-10-30T15:31:03.413Z,24.78
2022-10-30T15:32:40.689Z,24.68
2022-10-30T15:34:21.001Z,24.59
2022-10-30T15:35:52.572Z,24.48
2022-10-30T15:37:24.403Z,24.39
2022-10-30T15:39:05.994Z,24.32
2022-10-30T15:40:38.079Z,24.25
2022-10-30T15:42:09.786Z,24.16
2022-10-30T15:43:41.790Z,24.10
2022-10-30T15:45:17.659Z,24.00
2022-10-30T15:46:49.796Z,23.91
2022-10-30T15:48:27.962Z,23.80
2022-10-30T15:49:59.756Z,23.73
2022-10-30T15:51:32.606Z,23.69
2022-10-30T15:53:04.433Z,23.65
2022-10-30T15:54:36.021Z,23.63
2022-10-30T15:56:13.568Z,23.60
2022-10-30T15:58:02.771Z,23.54
2022-10-30T15:59:35.322Z,23.50
2022-10-30T16:01:07.460Z,23.44
2022-10-30T16:02:40.472Z,23.41
2022-10-30T16:04:15.477Z,23.37
2022-10-30T16:05:47.071Z,23.33
2022-10-30T16:07:20.522Z,23.29
2022-10-30T16:08:52.331Z,23.22
2022-10-30T16:10:24.449Z,23.14
2022-10-30T16:11:59.010Z,23.07
2022-10-30T16:13:30.873Z,23.02
2022-10-30T16:15:04.455Z,22.99
2022-10-30T16:16:36.577Z,22.94
2022-10-30T16:18:15.977Z,22.88
2022-10-30T16:19:48.630Z,22.81
2022-10-30T16:21:21.542Z,22.76
2022-10-30T16:22:54.013Z,22.73
2022-10-30T16:24:35.006Z,22.67
2022-10-30T16:26:07.122Z,22.64
2022-10-30T16:27:45.471Z,22.62
2022-10-30T16:29:24.927Z,22.58
2022-10-30T16:31:03.161Z,22.52
2022-10-30T16:32:34.723Z,22.45
2022-10-30T16:34:09.846Z,22.41
2022-10-30T16:35:42.485Z,22.36
2022-10-30T16:37:37.471Z,22.32
2022-10-30T16:39:10.440Z,22.29
2022-10-30T16:40:42.275Z,22.30
2022-10-30T16:42:23.842Z,22.31
2022-10-30T16:44:07.962Z,22.31
2022-10-30T16:45:45.933Z,22.30
2022-10-30T16:47:17.712Z,22.26
2022-10-30T16:48:54.561Z,22.23
2022-10-30T16:50:29.780Z,22.22
2022-10-30T16:52:07.174Z,22.19
2022-10-30T16:53:38.790Z,22.20
2022-10-30T16:55:20.041Z,22.17
2022-10-30T16:56:53.302Z,22.12
2022-10-30T16:58:26.338Z,22.09
2022-10-30T16:59:58.005Z,22.05
2022-10-30T17:01:29.761Z,22.05
2022-10-30T17:03:04.730Z,22.03
2022-10-30T17:04:37.261Z,22.03
2022-10-30T17:06:25.393Z,21.96
2022-10-30T17:08:04.732Z,21.94
2022-10-30T17:09:36.849Z,21.89
2022-10-30T17:11:16.770Z,21.88
2022-10-30T17:12:48.880Z,21.86
2022-10-30T17:14:21.102Z,21.82
2022-10-30T17:15:53.010Z,21.74
2022-10-30T17:17:31.157Z,21.70
2022-10-30T17:19:22.066Z,21.63
2022-10-30T17:21:10.791Z,21.63
2022-10-30T17:22:42.437Z,21.64
2022-10-30T17:24:20.812Z,21.64
2022-10-30T17:25:52.546Z,21.64
2022-10-30T17:27:27.718Z,21.65
2022-10-30T17:28:59.445Z,21.63
2022-10-30T17:30:32.937Z,21.59
2022-10-30T17:32:13.308Z,21.56
2022-10-30T17:33:45.542Z,21.55
2022-10-30T17:35:18.210Z,21.50
2022-10-30T17:36:49.972Z,21.47
2022-10-30T17:38:22.186Z,21.47
2022-10-30T17:39:54.075Z,21.44
2022-10-30T17:41:26.008Z,21.44
2022-10-30T17:42:58.000Z,21.42
2022-10-30T17:44:30.546Z,21.38
2022-10-30T17:46:02.296Z,21.34
2022-10-30T17:47:33.918Z,21.33
2022-10-30T17:49:06.153Z,21.32
2022-10-30T17:50:37.806Z,21.23
2022-10-30T17:52:16.781Z,21.19
2022-10-30T17:53:49.292Z,21.14
2022-10-30T17:55:23.069Z,21.01
2022-10-30T17:56:54.658Z,20.95
2022-10-30T17:58:26.390Z,20.90
2022-10-30T17:59:58.751Z,20.89
2022-10-30T18:01:30.711Z,20.81
2022-10-30T18:03:02.992Z,20.70
2022-10-30T18:04:35.565Z,20.65
2022-10-30T18:06:07.748Z,20.61
2022-10-30T18:07:42.072Z,20.60
2022-10-30T18:09:13.904Z,20.54
2022-10-30T18:10:45.904Z,20.48
2022-10-30T18:12:17.662Z,20.41
2022-10-30T18:13:50.038Z,20.35
2022-10-30T18:15:27.277Z,20.27
2022-10-30T18:16:59.761Z,20.22
2022-10-30T18:18:31.491Z,20.17
2022-10-30T18:20:03.302Z,20.12
2022-10-30T18:21:34.962Z,20.09
2022-10-30T18:23:12.767Z,20.05
2022-10-30T18:24:52.288Z,20.00
2022-10-30T18:26:25.421Z,19.97
2022-10-30T18:27:59.143Z,19.95
2022-10-30T18:29:30.873Z,19.94
2022-10-30T18:31:02.508Z,19.89
2022-10-30T18:32:34.798Z,19.80
2022-10-30T18:34:27.027Z,19.69
2022-10-30T18:35:59.150Z,19.53
2022-10-30T18:37:31.302Z,19.45
2022-10-30T18:39:03.527Z,19.40
2022-10-30T18:40:35.410Z,19.34
2022-10-30T18:42:08.324Z,19.34
2022-10-30T18:43:43.792Z,19.34
2022-10-30T18:45:19.343Z,19.34
2022-10-30T18:46:50.886Z,19.34
2022-10-30T18:48:22.666Z,19.33
2022-10-30T18:49:59.225Z,19.31
2022-10-30T18:51:31.012Z,19.25
2022-10-30T18:53:02.966Z,19.19
2022-10-30T18:54:34.930Z,19.14
2022-10-30T18:56:09.576Z,19.13
2022-10-30T18:57:41.772Z,19.09
2022-10-30T18:59:13.375Z,19.08
2022-10-30T19:01:10.459Z,19.05
2022-10-30T19:02:37.168Z,19.07
2022-10-30T19:04:11.693Z,19.10
2022-10-30T19:05:44.171Z,19.13
2022-10-30T19:07:16.038Z,19.02
2022-10-30T19:08:48.015Z,18.96
2022-10-30T19:10:19.835Z,18.88
2022-10-30T19:11:51.581Z,18.79
2022-10-30T19:13:23.468Z,18.73
2022-10-30T19:14:55.304Z,18.69
2022-10-30T19:16:27.093Z,18.67
2022-10-30T19:17:59.063Z,18.65
2022-10-30T19:19:31.109Z,18.63
2022-10-30T19:21:06.577Z,18.63
2022-10-30T19:22:40.818Z,18.64
2022-10-30T19:24:13.595Z,18.65
2022-10-30T19:25:45.282Z,18.61
2022-10-30T19:27:17.173Z,18.58
2022-10-30T19:28:48.975Z,18.54
2022-10-30T19:30:20.997Z,18.48
2022-10-30T19:31:52.996Z,18.46
2022-10-30T19:33:25.035Z,18.44
2022-10-30T19:34:56.687Z,18.45
2022-10-30T19:36:29.507Z,18.48
2022-10-30T19:38:01.928Z,18.50
2022-10-30T19:39:36.832Z,18.52
2022-10-30T19:41:08.837Z,18.52
2022-10-30T19:42:40.417Z,18.53
2022-10-30T19:44:12.129Z,18.54
2022-10-30T19:45:43.835Z,18.54
2022-10-30T19:47:18.374Z,18.51
2022-10-30T19:48:58.683Z,18.42
2022-10-30T19:50:31.977Z,18.32
2022-10-30T19:52:04.240Z,18.26
2022-10-30T19:53:35.892Z,18.23
2022-10-30T19:55:09.440Z,18.20
2022-10-30T19:56:43.876Z,18.21
2022-10-30T19:58:15.792Z,18.22
2022-10-30T19:59:55.929Z,18.24
2022-10-30T20:01:28.717Z,18.27
2022-10-30T20:03:00.679Z,18.26
2022-10-30T20:04:32.322Z,18.27
2022-10-30T20:06:13.199Z,18.30
2022-10-30T20:07:44.854Z,18.29
2022-10-30T20:09:16.433Z,18.26
2022-10-30T20:10:51.368Z,18.25
2022-10-30T20:12:22.957Z,18.23
2022-10-30T20:13:54.828Z,18.23
2022-10-30T20:15:27.712Z,18.21
2022-10-30T20:16:59.812Z,18.17
2022-10-30T20:18:31.937Z,18.10
2022-10-30T20:20:03.675Z,18.00
2022-10-30T20:21:35.589Z,17.93
2022-10-30T20:23:07.173Z,17.85
2022-10-30T20:24:38.829Z,17.80
2022-10-30T20:26:17.846Z,17.75